﻿ProjectID	SampleID	SampleType	TaxonomyID	UniqCodeType	UniqCode	SampleName	ScientificName	CommonName	CollectionYear	CollectionMonth	CollectionDay	SamplingTimeStartEnd	SamplingTimeAMPM	SamplingDuration	WeatherStartEnd	CollectionRegion	CollectionCountry	CollectionArea	CollectionLatitudeFrom	CollectionLatitudeTo	CollectionLongitudeFrom	CollectionLongitudeTo	Sex	TissueOrgan	TissueLipid	TissueMoist	Weight	WeightUnit	Length	LengthUnit	LengthType	GrowthStage	Age	Disease	TemperatureStartEnd	WaterTemperatureStartEnd	pH	DO	EC	EC_temp	Salinity	SS	WaterDepthM	TransparencyM	WaterColor	SedimentTemperatureStartEnd	SedimentDepthM	SedimentAppearance	SedimentColor	SedimentSurfaceColor	SedimentOdor	SedimentImpurities	SedimentMoistureOnSiteAnalysis	IgnitionLossOnSiteAnalysis	SoilDepthM	FlowRate	MeanPM10	MeanTotalSuspendedParticles	HumidityStartEnd	WindDirectionStartEnd	WindSpeedMSStartEnd	AmountOfCollectedAirStartEnd	Remarks	RegisterDate	UpdateDate
PRA000046	SAA002593	ST014				SW-A1	Water	"Surface water"	2013	3	5					Asia	Japan	"Hiroshima Bay"	34.206		132.315															10					29.6		"0.1 - 0.2"																				"Near an aquaculture net"	2017/10/6	2019/7/18
PRA000046	SAA002594	ST014				SW-B1	Water	"Surface water"	2013	3	5					Asia	Japan	"Hiroshima Bay"	34.301		132.365															9.8					24.4		"0.1 - 0.2"																				"At the center of the Hiroshima Bay and along a sea route"	2017/10/6	2019/7/18
PRA000046	SAA002595	ST014				SW-C1	Water	"Surface water"	2013	3	5					Asia	Japan	"Hiroshima Bay"	34.275		132.418															9.8					25.4		"0.1 - 0.2"																				"River mouth region"	2017/10/6	2019/7/18
PRA000046	SAA002596	ST014				SW-D1	Water	"Surface water"	2013	3	5					Asia	Japan	"Hiroshima Bay"	34.335		132.434															11.3					25.2		"0.1 - 0.2"																				"River mouth region"	2017/10/6	2019/7/18
PRA000046	SAA002597	ST014				SW-E1	Water	"Surface water"	2013	3	5					Asia	Japan	"Hiroshima Bay"	34.333		132.367															10.4					25.3		"0.1 - 0.2"																				"River mouth region"	2017/10/6	2019/7/18
PRA000046	SAA002598	ST014				SW-A2	Water	"Surface water"	2012	12	5					Asia	Japan	"Hiroshima Bay"	34.206		132.315															15.9					29.8		"0.1 - 0.2"																				"Near an aquaculture net"	2017/10/6	2019/7/18
PRA000046	SAA002599	ST014				SW-B2	Water	"Surface water"	2012	12	5					Asia	Japan	"Hiroshima Bay"	34.301		132.365															16.2					29.6		"0.1 - 0.2"																				"At the center of the Hiroshima Bay and along a sea route"	2017/10/6	2019/7/18
PRA000046	SAA002600	ST014				SW-C2	Water	"Surface water"	2012	12	5					Asia	Japan	"Hiroshima Bay"	34.275		132.418															15.6					29.8		"0.1 - 0.2"																				"River mouth region"	2017/10/6	2019/7/18
PRA000046	SAA002601	ST014				SW-D2	Water	"Surface water"	2012	12	5					Asia	Japan	"Hiroshima Bay"	34.335		132.434															15.5					30.1		"0.1 - 0.2"																				"River mouth region"	2017/10/6	2019/7/18
PRA000046	SAA002602	ST014				SW-E2	Water	"Surface water"	2012	12	5					Asia	Japan	"Hiroshima Bay"	34.333		132.367															13.9					28		"0.1 - 0.2"																				"River mouth region"	2017/10/6	2019/7/18
PRA000046	SAA002603	ST014				SW-A3	Water	"Surface water"	2012	10	4					Asia	Japan	"Hiroshima Bay"	34.206		132.315															24.2					30.3		"0.1 - 0.2"																				"Near an aquaculture net"	2017/10/6	2019/7/18
PRA000046	SAA002604	ST014				SW-B3	Water	"Surface water"	2012	10	4					Asia	Japan	"Hiroshima Bay"	34.301		132.365															24.3					30.3		"0.1 - 0.2"																				"At the center of the Hiroshima Bay and along a sea route"	2017/10/6	2019/7/18
PRA000046	SAA002605	ST014				SW-C3	Water	"Surface water"	2012	10	4					Asia	Japan	"Hiroshima Bay"	34.275		132.418															24.5					30.5		"0.1 - 0.2"																				"River mouth region"	2017/10/6	2019/7/18
PRA000046	SAA002606	ST014				SW-D3	Water	"Surface water"	2012	10	4					Asia	Japan	"Hiroshima Bay"	34.335		132.434															24.3					29.8		"0.1 - 0.2"																				"River mouth region"	2017/10/6	2019/7/18
PRA000046	SAA002607	ST014				SW-E3	Water	"Surface water"	2012	10	4					Asia	Japan	"Hiroshima Bay"	34.333		132.367															24.1					29.7		"0.1 - 0.2"																				"River mouth region"	2017/10/6	2019/7/18
PRA000046	SAA002608	ST014				SW-A4	Water	"Surface water"	2012	8	8					Asia	Japan	"Hiroshima Bay"	34.206		132.315															26.7					28.5		"0.1 - 0.2"																				"Near an aquaculture net"	2017/10/6	2019/7/18
PRA000046	SAA002609	ST014				SW-B4	Water	"Surface water"	2012	8	8					Asia	Japan	"Hiroshima Bay"	34.301		132.365															28					27.9		"0.1 - 0.2"																				"At the center of the Hiroshima Bay and along a sea route"	2017/10/6	2019/7/18
PRA000046	SAA002610	ST014				SW-C4	Water	"Surface water"	2012	8	8					Asia	Japan	"Hiroshima Bay"	34.275		132.418															25.9					29.7		"0.1 - 0.2"																				"River mouth region"	2017/10/6	2019/7/18
PRA000046	SAA002611	ST014				SW-D4	Water	"Surface water"	2012	8	8					Asia	Japan	"Hiroshima Bay"	34.335		132.434															27.4					26.5		"0.1 - 0.2"																				"River mouth region"	2017/10/6	2019/7/18
PRA000046	SAA002612	ST014				SW-E4	Water	"Surface water"	2012	8	8					Asia	Japan	"Hiroshima Bay"	34.333		132.367															28					25		"0.1 - 0.2"																				"River mouth region"	2017/10/6	2019/7/18
PRA000046	SAA002613	ST014				SW-A5	Water	"Surface water"	2012	6	26					Asia	Japan	"Hiroshima Bay"	34.206		132.315															21.3					28.9		"0.1 - 0.2"																				"Near an aquaculture net"	2017/10/6	2019/7/18
PRA000046	SAA002614	ST014				SW-B5	Water	"Surface water"	2012	6	26					Asia	Japan	"Hiroshima Bay"	34.301		132.365															21.2					27.8		"0.1 - 0.2"																				"At the center of the Hiroshima Bay and along a sea route"	2017/10/6	2019/7/18
PRA000046	SAA002615	ST014				SW-C5	Water	"Surface water"	2012	6	26					Asia	Japan	"Hiroshima Bay"	34.275		132.418															21					28.8		"0.1 - 0.2"																				"River mouth region"	2017/10/6	2019/7/18
PRA000046	SAA002616	ST014				SW-D5	Water	"Surface water"	2012	6	26					Asia	Japan	"Hiroshima Bay"	34.335		132.434															21.3					21.6		"0.1 - 0.2"																				"River mouth region"	2017/10/6	2019/7/18
PRA000046	SAA002617	ST014				SW-E5	Water	"Surface water"	2012	6	26					Asia	Japan	"Hiroshima Bay"	34.333		132.367															22.2					23.4		"0.1 - 0.2"																				"River mouth region"	2017/10/6	2019/7/18
PRA000046	SAA002618	ST014				SW-A6	Water	"Surface water"	2012	4	24					Asia	Japan	"Hiroshima Bay"	34.206		132.315															15.2					27.8		"0.1 - 0.2"																				"Near an aquaculture net"	2017/10/6	2019/7/18
PRA000046	SAA002619	ST014				SW-B6	Water	"Surface water"	2012	4	24					Asia	Japan	"Hiroshima Bay"	34.301		132.365															15.4					25.8		"0.1 - 0.2"																				"At the center of the Hiroshima Bay and along a sea route"	2017/10/6	2019/7/18
PRA000046	SAA002620	ST014				SW-C6	Water	"Surface water"	2012	4	24					Asia	Japan	"Hiroshima Bay"	34.275		132.418															16.1					29.4		"0.1 - 0.2"																				"River mouth region"	2017/10/6	2019/7/18
PRA000046	SAA002621	ST014				SW-D6	Water	"Surface water"	2012	4	24					Asia	Japan	"Hiroshima Bay"	34.335		132.434															16.1					24.7		"0.1 - 0.2"																				"River mouth region"	2017/10/6	2019/7/18
PRA000046	SAA002622	ST014				SW-E6	Water	"Surface water"	2012	4	24					Asia	Japan	"Hiroshima Bay"	34.333		132.367															17.6					23.8		"0.1 - 0.2"																				"River mouth region"	2017/10/6	2019/7/18
PRA000046	SAA002623	ST014				SW-A7	Water	"Surface water"	2012	2	21					Asia	Japan	"Hiroshima Bay"	34.206		132.315															9.2					30.7		"0.1 - 0.2"																				"Near an aquaculture net"	2017/10/6	2019/7/18
PRA000046	SAA002624	ST014				SW-B7	Water	"Surface water"	2012	2	21					Asia	Japan	"Hiroshima Bay"	34.301		132.365															8.8					29.2		"0.1 - 0.2"																				"At the center of the Hiroshima Bay and along a sea route"	2017/10/6	2019/7/18
PRA000046	SAA002625	ST014				SW-C7	Water	"Surface water"	2012	2	21					Asia	Japan	"Hiroshima Bay"	34.275		132.418															9.4					30.6		"0.1 - 0.2"																				"River mouth region"	2017/10/6	2019/7/18
PRA000046	SAA002626	ST014				SW-D7	Water	"Surface water"	2012	2	21					Asia	Japan	"Hiroshima Bay"	34.335		132.434															9.6					29.8		"0.1 - 0.2"																				"River mouth region"	2017/10/6	2019/7/18
PRA000046	SAA002627	ST014				SW-E7	Water	"Surface water"	2012	2	21					Asia	Japan	"Hiroshima Bay"	34.333		132.367															8.6					28		"0.1 - 0.2"																				"River mouth region"	2017/10/6	2019/7/18
PRA000046	SAA002628	ST014				SW-A8	Water	"Surface water"	2011	12	6					Asia	Japan	"Hiroshima Bay"	34.206		132.315															17.1					30.7		"0.1 - 0.2"																				"Near an aquaculture net"	2017/10/6	2019/7/18
PRA000046	SAA002629	ST014				SW-B8	Water	"Surface water"	2011	12	6					Asia	Japan	"Hiroshima Bay"	34.301		132.365															16.9					30		"0.1 - 0.2"																				"At the center of the Hiroshima Bay and along a sea route"	2017/10/6	2019/7/18
PRA000046	SAA002630	ST014				SW-C8	Water	"Surface water"	2011	12	6					Asia	Japan	"Hiroshima Bay"	34.275		132.418															16.9					30.5		"0.1 - 0.2"																				"River mouth region"	2017/10/6	2019/7/18
PRA000046	SAA002631	ST014				SW-D8	Water	"Surface water"	2011	12	6					Asia	Japan	"Hiroshima Bay"	34.335		132.434															16.7					28.3		"0.1 - 0.2"																				"River mouth region"	2017/10/6	2019/7/18
PRA000046	SAA002632	ST014				SW-E8	Water	"Surface water"	2011	12	6					Asia	Japan	"Hiroshima Bay"	34.333		132.367															16.7					28.9		"0.1 - 0.2"																				"River mouth region"	2017/10/6	2019/7/18
PRA000046	SAA002633	ST014				SW-A9	Water	"Surface water"	2011	10	5					Asia	Japan	"Hiroshima Bay"	34.206		132.315															23.3					30.8		"0.1 - 0.2"																				"Near an aquaculture net"	2017/10/6	2019/7/18
PRA000046	SAA002634	ST014				SW-B9	Water	"Surface water"	2011	10	5					Asia	Japan	"Hiroshima Bay"	34.301		132.365															23					30.2		"0.1 - 0.2"																				"At the center of the Hiroshima Bay and along a sea route"	2017/10/6	2019/7/18
PRA000046	SAA002635	ST014				SW-C9	Water	"Surface water"	2011	10	5					Asia	Japan	"Hiroshima Bay"	34.275		132.418															23.6					30.9		"0.1 - 0.2"																				"River mouth region"	2017/10/6	2019/7/18
PRA000046	SAA002636	ST014				SW-D9	Water	"Surface water"	2011	10	5					Asia	Japan	"Hiroshima Bay"	34.335		132.434															23.5					29.4		"0.1 - 0.2"																				"River mouth region"	2017/10/6	2019/7/18
PRA000046	SAA002637	ST014				SW-E9	Water	"Surface water"	2011	10	5					Asia	Japan	"Hiroshima Bay"	34.333		132.367															22.4					29.4		"0.1 - 0.2"																				"River mouth region"	2017/10/6	2019/7/18
PRA000046	SAA002638	ST014				SW-A10	Water	"Surface water"	2011	8	17					Asia	Japan	"Hiroshima Bay"	34.206		132.315															26.5					30.8		"0.1 - 0.2"																				"Near an aquaculture net"	2017/10/6	2019/7/18
PRA000046	SAA002639	ST014				SW-B10	Water	"Surface water"	2011	8	17					Asia	Japan	"Hiroshima Bay"	34.301		132.365															26.5					30.2		"0.1 - 0.2"																				"At the center of the Hiroshima Bay and along a sea route"	2017/10/6	2019/7/18
PRA000046	SAA002640	ST014				SW-C10	Water	"Surface water"	2011	8	17					Asia	Japan	"Hiroshima Bay"	34.275		132.418															26.3					30.8		"0.1 - 0.2"																				"River mouth region"	2017/10/6	2019/7/18
PRA000046	SAA002641	ST014				SW-D10	Water	"Surface water"	2011	8	17					Asia	Japan	"Hiroshima Bay"	34.335		132.434															27.6					26.2		"0.1 - 0.2"																				"River mouth region"	2017/10/6	2019/7/18
PRA000046	SAA002642	ST014				SW-E10	Water	"Surface water"	2011	8	17					Asia	Japan	"Hiroshima Bay"	34.333		132.367															27.2					28.6		"0.1 - 0.2"																				"River mouth region"	2017/10/6	2019/7/18
PRA000046	SAA002643	ST014				SW-A11	Water	"Surface water"	2011	6	28					Asia	Japan	"Hiroshima Bay"	34.206		132.315															22.2					30		"0.1 - 0.2"																				"Near an aquaculture net"	2017/10/6	2019/7/18
PRA000046	SAA002644	ST014				SW-B11	Water	"Surface water"	2011	6	28					Asia	Japan	"Hiroshima Bay"	34.301		132.365															24.4					25.8		"0.1 - 0.2"																				"At the center of the Hiroshima Bay and along a sea route"	2017/10/6	2019/7/18
PRA000046	SAA002645	ST014				SW-C11	Water	"Surface water"	2011	6	28					Asia	Japan	"Hiroshima Bay"	34.275		132.418															23.5					28.7		"0.1 - 0.2"																				"River mouth region"	2017/10/6	2019/7/18
PRA000046	SAA002646	ST014				SW-D11	Water	"Surface water"	2011	6	28					Asia	Japan	"Hiroshima Bay"	34.335		132.434															25.4					22.9		"0.1 - 0.2"																				"River mouth region"	2017/10/6	2019/7/18
PRA000046	SAA002647	ST014				SW-E11	Water	"Surface water"	2011	6	28					Asia	Japan	"Hiroshima Bay"	34.333		132.367															25.4					24.4		"0.1 - 0.2"																				"River mouth region"	2017/10/6	2019/7/18
PRA000046	SAA002648	ST014				SW-A12	Water	"Surface water"	2011	5	10					Asia	Japan	"Hiroshima Bay"	34.206		132.315															17.4					30.2		"0.1 - 0.2"																				"Near an aquaculture net"	2017/10/6	2019/7/18
PRA000046	SAA002649	ST014				SW-B12	Water	"Surface water"	2011	5	10					Asia	Japan	"Hiroshima Bay"	34.301		132.365															17.6					30		"0.1 - 0.2"																				"At the center of the Hiroshima Bay and along a sea route"	2017/10/6	2019/7/18
PRA000046	SAA002650	ST014				SW-C12	Water	"Surface water"	2011	5	10					Asia	Japan	"Hiroshima Bay"	34.275		132.418															18.1					30.3		"0.1 - 0.2"																				"River mouth region"	2017/10/6	2019/7/18
PRA000046	SAA002651	ST014				SW-D12	Water	"Surface water"	2011	5	10					Asia	Japan	"Hiroshima Bay"	34.335		132.434															19.1					25.1		"0.1 - 0.2"																				"River mouth region"	2017/10/6	2019/7/18
PRA000046	SAA002652	ST014				SW-E12	Water	"Surface water"	2011	5	10					Asia	Japan	"Hiroshima Bay"	34.333		132.367															17.8					29.6		"0.1 - 0.2"																				"River mouth region"	2017/10/6	2019/7/18
PRA000046	SAA002653	ST014				BW-A1	Water	"Bottom water"	2013	3	5					Asia	Japan	"Hiroshima Bay"	34.206		132.315															10.1					28.2		33																				"Near an aquaculture net"	2017/10/6	2019/7/18
PRA000046	SAA002654	ST014				BW-B1	Water	"Bottom water"	2013	3	5					Asia	Japan	"Hiroshima Bay"	34.301		132.365															10.6					27.3		29																				"At the center of the Hiroshima Bay and along a sea route"	2017/10/6	2019/7/18
PRA000046	SAA002655	ST014				BW-C1	Water	"Bottom water"	2013	3	5					Asia	Japan	"Hiroshima Bay"	34.275		132.418															10.5					28.2		16																				"River mouth region"	2017/10/6	2019/7/18
PRA000046	SAA002656	ST014				BW-D1	Water	"Bottom water"	2013	3	5					Asia	Japan	"Hiroshima Bay"	34.335		132.434															10.5					28.3		20																				"River mouth region"	2017/10/6	2019/7/18
PRA000046	SAA002657	ST014				BW-E1	Water	"Bottom water"	2013	3	5					Asia	Japan	"Hiroshima Bay"	34.333		132.367															10.9					29.8		15																				"River mouth region"	2017/10/6	2019/7/18
PRA000046	SAA002658	ST014				BW-A2	Water	"Bottom water"	2012	12	5					Asia	Japan	"Hiroshima Bay"	34.206		132.315															16.1					30.3		33																				"Near an aquaculture net"	2017/10/6	2019/7/18
PRA000046	SAA002659	ST014				BW-B2	Water	"Bottom water"	2012	12	5					Asia	Japan	"Hiroshima Bay"	34.301		132.365															16.2					30.3		29																				"At the center of the Hiroshima Bay and along a sea route"	2017/10/6	2019/7/18
PRA000046	SAA002660	ST014				BW-C2	Water	"Bottom water"	2012	12	5					Asia	Japan	"Hiroshima Bay"	34.275		132.418															15.3					29.9		16																				"River mouth region"	2017/10/6	2019/7/18
PRA000046	SAA002661	ST014				BW-D2	Water	"Bottom water"	2012	12	5					Asia	Japan	"Hiroshima Bay"	34.335		132.434															15.9					29.9		20																				"River mouth region"	2017/10/6	2019/7/18
PRA000046	SAA002662	ST014				BW-E2	Water	"Bottom water"	2012	12	5					Asia	Japan	"Hiroshima Bay"	34.333		132.367															15.8					29.9		15																				"River mouth region"	2017/10/6	2019/7/18
PRA000046	SAA002663	ST014				BW-A3	Water	"Bottom water"	2012	10	4					Asia	Japan	"Hiroshima Bay"	34.206		132.315															24.1					31		33																				"Near an aquaculture net"	2017/10/6	2019/7/18
PRA000046	SAA002664	ST014				BW-B3	Water	"Bottom water"	2012	10	4					Asia	Japan	"Hiroshima Bay"	34.301		132.365															24.2					30.5		29																				"At the center of the Hiroshima Bay and along a sea route"	2017/10/6	2019/7/18
PRA000046	SAA002665	ST014				BW-C3	Water	"Bottom water"	2012	10	4					Asia	Japan	"Hiroshima Bay"	34.275		132.418															24.2					30.4		16																				"River mouth region"	2017/10/6	2019/7/18
PRA000046	SAA002666	ST014				BW-D3	Water	"Bottom water"	2012	10	4					Asia	Japan	"Hiroshima Bay"	34.335		132.434															24.2					30.2		20																				"River mouth region"	2017/10/6	2019/7/18
PRA000046	SAA002667	ST014				BW-E3	Water	"Bottom water"	2012	10	4					Asia	Japan	"Hiroshima Bay"	34.333		132.367															24.2					30.3		15																				"River mouth region"	2017/10/6	2019/7/18
PRA000046	SAA002668	ST014				BW-A4	Water	"Bottom water"	2012	8	8					Asia	Japan	"Hiroshima Bay"	34.206		132.315															22.1					30.7		33																				"Near an aquaculture net"	2017/10/6	2019/7/18
PRA000046	SAA002669	ST014				BW-B4	Water	"Bottom water"	2012	8	8					Asia	Japan	"Hiroshima Bay"	34.301		132.365															21.9					30.5		29																				"At the center of the Hiroshima Bay and along a sea route"	2017/10/6	2019/7/18
PRA000046	SAA002670	ST014				BW-C4	Water	"Bottom water"	2012	8	8					Asia	Japan	"Hiroshima Bay"	34.275		132.418															21.7					30.6		16																				"River mouth region"	2017/10/6	2019/7/18
PRA000046	SAA002671	ST014				BW-D4	Water	"Bottom water"	2012	8	8					Asia	Japan	"Hiroshima Bay"	34.335		132.434															21.7					30.1		20																				"River mouth region"	2017/10/6	2019/7/18
PRA000046	SAA002672	ST014				BW-E4	Water	"Bottom water"	2012	8	8					Asia	Japan	"Hiroshima Bay"	34.333		132.367															25					28.8		15																				"River mouth region"	2017/10/6	2019/7/18
PRA000046	SAA002673	ST014				BW-A5	Water	"Bottom water"	2012	6	26					Asia	Japan	"Hiroshima Bay"	34.206		132.315															18.1					31.8		33																				"Near an aquaculture net"	2017/10/6	2019/7/18
PRA000046	SAA002674	ST014				BW-B5	Water	"Bottom water"	2012	6	26					Asia	Japan	"Hiroshima Bay"	34.301		132.365															19					30.5		29																				"At the center of the Hiroshima Bay and along a sea route"	2017/10/6	2019/7/18
PRA000046	SAA002675	ST014				BW-C5	Water	"Bottom water"	2012	6	26					Asia	Japan	"Hiroshima Bay"	34.275		132.418															18.1					31.4		16																				"River mouth region"	2017/10/6	2019/7/18
PRA000046	SAA002676	ST014				BW-D5	Water	"Bottom water"	2012	6	26					Asia	Japan	"Hiroshima Bay"	34.335		132.434															17.5					31.5		20																				"River mouth region"	2017/10/6	2019/7/18
PRA000046	SAA002677	ST014				BW-E5	Water	"Bottom water"	2012	6	26					Asia	Japan	"Hiroshima Bay"	34.333		132.367															17.4					31.4		15																				"River mouth region"	2017/10/6	2019/7/18
PRA000046	SAA002678	ST014				BW-A6	Water	"Bottom water"	2012	4	24					Asia	Japan	"Hiroshima Bay"	34.206		132.315															12.5					31.8		33																				"Near an aquaculture net"	2017/10/6	2019/7/18
PRA000046	SAA002679	ST014				BW-B6	Water	"Bottom water"	2012	4	24					Asia	Japan	"Hiroshima Bay"	34.301		132.365															13.5					31.6		29																				"At the center of the Hiroshima Bay and along a sea route"	2017/10/6	2019/7/18
PRA000046	SAA002680	ST014				BW-C6	Water	"Bottom water"	2012	4	24					Asia	Japan	"Hiroshima Bay"	34.275		132.418															15.6					31.5		16																				"River mouth region"	2017/10/6	2019/7/18
PRA000046	SAA002681	ST014				BW-D6	Water	"Bottom water"	2012	4	24					Asia	Japan	"Hiroshima Bay"	34.335		132.434															13.4					31.3		20																				"River mouth region"	2017/10/6	2019/7/18
PRA000046	SAA002682	ST014				BW-E6	Water	"Bottom water"	2012	4	24					Asia	Japan	"Hiroshima Bay"	34.333		132.367															13.1					31.4		15																				"River mouth region"	2017/10/6	2019/7/18
PRA000046	SAA002683	ST014				BW-A7	Water	"Bottom water"	2012	2	21					Asia	Japan	"Hiroshima Bay"	34.206		132.315															9.9					31.1		33																				"Near an aquaculture net"	2017/10/6	2019/7/18
PRA000046	SAA002684	ST014				BW-B7	Water	"Bottom water"	2012	2	21					Asia	Japan	"Hiroshima Bay"	34.301		132.365																				26.5		29																				"At the center of the Hiroshima Bay and along a sea route"	2017/10/6	2019/7/18
PRA000046	SAA002685	ST014				BW-C7	Water	"Bottom water"	2012	2	21					Asia	Japan	"Hiroshima Bay"	34.275		132.418															9.6					30.9		16																				"River mouth region"	2017/10/6	2019/7/18
PRA000046	SAA002686	ST014				BW-D7	Water	"Bottom water"	2012	2	21					Asia	Japan	"Hiroshima Bay"	34.335		132.434															10.3					31		20																				"River mouth region"	2017/10/6	2019/7/18
PRA000046	SAA002687	ST014				BW-E7	Water	"Bottom water"	2012	2	21					Asia	Japan	"Hiroshima Bay"	34.333		132.367															10.3					31.1		15																				"River mouth region"	2017/10/6	2019/7/18
PRA000046	SAA002688	ST014				BW-A8	Water	"Bottom water"	2011	12	6					Asia	Japan	"Hiroshima Bay"	34.206		132.315															17.5					30.9		33																				"Near an aquaculture net"	2017/10/6	2019/7/18
PRA000046	SAA002689	ST014				BW-B8	Water	"Bottom water"	2011	12	6					Asia	Japan	"Hiroshima Bay"	34.301		132.365															18.1					30.9		29																				"At the center of the Hiroshima Bay and along a sea route"	2017/10/6	2019/7/18
PRA000046	SAA002690	ST014				BW-C8	Water	"Bottom water"	2011	12	6					Asia	Japan	"Hiroshima Bay"	34.275		132.418															17.9					30.8		16																				"River mouth region"	2017/10/6	2019/7/18
PRA000046	SAA002691	ST014				BW-D8	Water	"Bottom water"	2011	12	6					Asia	Japan	"Hiroshima Bay"	34.335		132.434															18.5					30.9		20																				"River mouth region"	2017/10/6	2019/7/18
PRA000046	SAA002692	ST014				BW-E8	Water	"Bottom water"	2011	12	6					Asia	Japan	"Hiroshima Bay"	34.333		132.367															18.4					30.7		15																				"River mouth region"	2017/10/6	2019/7/18
PRA000046	SAA002693	ST014				BW-A9	Water	"Bottom water"	2011	10	5					Asia	Japan	"Hiroshima Bay"	34.206		132.315															23.9					31.1		33																				"Near an aquaculture net"	2017/10/6	2019/7/18
PRA000046	SAA002694	ST014				BW-B9	Water	"Bottom water"	2011	10	5					Asia	Japan	"Hiroshima Bay"	34.301		132.365															23.8					31.1		29																				"At the center of the Hiroshima Bay and along a sea route"	2017/10/6	2019/7/18
PRA000046	SAA002695	ST014				BW-C9	Water	"Bottom water"	2011	10	5					Asia	Japan	"Hiroshima Bay"	34.275		132.418															23.2					31.1		16																				"River mouth region"	2017/10/6	2019/7/18
PRA000046	SAA002696	ST014				BW-D9	Water	"Bottom water"	2011	10	5					Asia	Japan	"Hiroshima Bay"	34.335		132.434															23.4					30.5		20																				"River mouth region"	2017/10/6	2019/7/18
PRA000046	SAA002697	ST014				BW-E9	Water	"Bottom water"	2011	10	5					Asia	Japan	"Hiroshima Bay"	34.333		132.367															22.5					29.5		15																				"River mouth region"	2017/10/6	2019/7/18
PRA000046	SAA002698	ST014				BW-A10	Water	"Bottom water"	2011	8	17					Asia	Japan	"Hiroshima Bay"	34.206		132.315															23.5					31.4		33																				"Near an aquaculture net"	2017/10/6	2019/7/18
PRA000046	SAA002699	ST014				BW-B10	Water	"Bottom water"	2011	8	17					Asia	Japan	"Hiroshima Bay"	34.301		132.365															25.2					30.7		29																				"At the center of the Hiroshima Bay and along a sea route"	2017/10/6	2019/7/18
PRA000046	SAA002700	ST014				BW-C10	Water	"Bottom water"	2011	8	17					Asia	Japan	"Hiroshima Bay"	34.275		132.418															24.7					31		16																				"River mouth region"	2017/10/6	2019/7/18
PRA000046	SAA002701	ST014				BW-D10	Water	"Bottom water"	2011	8	17					Asia	Japan	"Hiroshima Bay"	34.335		132.434															23.4					31		20																				"River mouth region"	2017/10/6	2019/7/18
PRA000046	SAA002702	ST014				BW-E10	Water	"Bottom water"	2011	8	17					Asia	Japan	"Hiroshima Bay"	34.333		132.367															24.5					30.7		15																				"River mouth region"	2017/10/6	2019/7/18
PRA000046	SAA002703	ST014				BW-A11	Water	"Bottom water"	2011	6	28					Asia	Japan	"Hiroshima Bay"	34.206		132.315															20.1					31.3		33																				"Near an aquaculture net"	2017/10/6	2019/7/18
PRA000046	SAA002704	ST014				BW-B11	Water	"Bottom water"	2011	6	28					Asia	Japan	"Hiroshima Bay"	34.301		132.365															20.6					30.5		29																				"At the center of the Hiroshima Bay and along a sea route"	2017/10/6	2019/7/18
PRA000046	SAA002705	ST014				BW-C11	Water	"Bottom water"	2011	6	28					Asia	Japan	"Hiroshima Bay"	34.275		132.418															21.2					30.7		16																				"River mouth region"	2017/10/6	2019/7/18
PRA000046	SAA002706	ST014				BW-D11	Water	"Bottom water"	2011	6	28					Asia	Japan	"Hiroshima Bay"	34.335		132.434															20.5					29.8		20																				"River mouth region"	2017/10/6	2019/7/18
PRA000046	SAA002707	ST014				BW-E11	Water	"Bottom water"	2011	6	28					Asia	Japan	"Hiroshima Bay"	34.333		132.367															18.8					31.2		15																				"River mouth region"	2017/10/6	2019/7/18
PRA000046	SAA002708	ST014				BW-A12	Water	"Bottom water"	2011	5	10					Asia	Japan	"Hiroshima Bay"	34.206		132.315															13.5					32.4		33																				"Near an aquaculture net"	2017/10/6	2019/7/18
PRA000046	SAA002709	ST014				BW-B12	Water	"Bottom water"	2011	5	10					Asia	Japan	"Hiroshima Bay"	34.301		132.365															14.5					32.2		29																				"At the center of the Hiroshima Bay and along a sea route"	2017/10/6	2019/7/18
PRA000046	SAA002710	ST014				BW-C12	Water	"Bottom water"	2011	5	10					Asia	Japan	"Hiroshima Bay"	34.275		132.418															19.5					32.1		16																				"River mouth region"	2017/10/6	2019/7/18
PRA000046	SAA002711	ST014				BW-D12	Water	"Bottom water"	2011	5	10					Asia	Japan	"Hiroshima Bay"	34.335		132.434															14					32.4		20																				"River mouth region"	2017/10/6	2019/7/18
PRA000046	SAA002712	ST014				BW-E12	Water	"Bottom water"	2011	5	10					Asia	Japan	"Hiroshima Bay"	34.333		132.367															13					31.9		15																				"River mouth region"	2017/10/6	2019/7/18
PRA000046	SAA002713	ST023				SC-A1	Sediment	"Sediment core"	2013	3	5					Asia	Japan	"Hiroshima Bay"	34.206		132.315																										"0 - 0.05"							7									"Near an aquaculture net; Ignition loss (600 ℃, 2h)"	2017/10/6	2019/7/18
PRA000046	SAA002714	ST023				SC-B1	Sediment	"Sediment core"	2013	3	5					Asia	Japan	"Hiroshima Bay"	34.301		132.365																										"0 - 0.05"							8									"At the center of the Hiroshima Bay and along a sea route; Ignition loss (600 ℃, 2h)"	2017/10/6	2019/7/18
PRA000046	SAA002715	ST023				SC-C1	Sediment	"Sediment core"	2013	3	5					Asia	Japan	"Hiroshima Bay"	34.275		132.418																										"0 - 0.05"							7									"River mouth region; Ignition loss (600 ℃, 2h)"	2017/10/6	2019/7/18
PRA000046	SAA002716	ST023				SC-D1	Sediment	"Sediment core"	2013	3	5					Asia	Japan	"Hiroshima Bay"	34.335		132.434																										"0 - 0.05"							10									"River mouth region; Ignition loss (600 ℃, 2h)"	2017/10/6	2019/7/18
PRA000046	SAA002717	ST023				SC-E1	Sediment	"Sediment core"	2013	3	5					Asia	Japan	"Hiroshima Bay"	34.333		132.367																										"0 - 0.05"							9									"River mouth region; Ignition loss (600 ℃, 2h)"	2017/10/6	2019/7/18
PRA000046	SAA002718	ST023				SC-A2	Sediment	"Sediment core"	2012	12	5					Asia	Japan	"Hiroshima Bay"	34.206		132.315																										"0 - 0.05"							6									"Near an aquaculture net; Ignition loss (600 ℃, 2h)"	2017/10/6	2019/7/18
PRA000046	SAA002719	ST023				SC-B2	Sediment	"Sediment core"	2012	12	5					Asia	Japan	"Hiroshima Bay"	34.301		132.365																										"0 - 0.05"							6									"At the center of the Hiroshima Bay and along a sea route; Ignition loss (600 ℃, 2h)"	2017/10/6	2019/7/18
PRA000046	SAA002720	ST023				SC-C2	Sediment	"Sediment core"	2012	12	5					Asia	Japan	"Hiroshima Bay"	34.275		132.418																										"0 - 0.05"							8									"River mouth region; Ignition loss (600 ℃, 2h)"	2017/10/6	2019/7/18
PRA000046	SAA002721	ST023				SC-D2	Sediment	"Sediment core"	2012	12	5					Asia	Japan	"Hiroshima Bay"	34.335		132.434																										"0 - 0.05"							9									"River mouth region; Ignition loss (600 ℃, 2h)"	2017/10/6	2019/7/18
PRA000046	SAA002722	ST023				SC-E2	Sediment	"Sediment core"	2012	12	5					Asia	Japan	"Hiroshima Bay"	34.333		132.367																										"0 - 0.05"							9									"River mouth region; Ignition loss (600 ℃, 2h)"	2017/10/6	2019/7/18
PRA000046	SAA002723	ST023				SC-A3	Sediment	"Sediment core"	2012	10	4					Asia	Japan	"Hiroshima Bay"	34.206		132.315																										"0 - 0.05"							7									"Near an aquaculture net; Ignition loss (600 ℃, 2h)"	2017/10/6	2019/7/18
PRA000046	SAA002724	ST023				SC-B3	Sediment	"Sediment core"	2012	10	4					Asia	Japan	"Hiroshima Bay"	34.301		132.365																										"0 - 0.05"							7									"At the center of the Hiroshima Bay and along a sea route; Ignition loss (600 ℃, 2h)"	2017/10/6	2019/7/18
PRA000046	SAA002725	ST023				SC-C3	Sediment	"Sediment core"	2012	10	4					Asia	Japan	"Hiroshima Bay"	34.275		132.418																										"0 - 0.05"							9									"River mouth region; Ignition loss (600 ℃, 2h)"	2017/10/6	2019/7/18
PRA000046	SAA002726	ST023				SC-D3	Sediment	"Sediment core"	2012	10	4					Asia	Japan	"Hiroshima Bay"	34.335		132.434																										"0 - 0.05"							8									"River mouth region;Ignition loss (600 ℃, 2h)"	2017/10/6	2019/7/18
PRA000046	SAA002727	ST023				SC-E3	Sediment	"Sediment core"	2012	10	4					Asia	Japan	"Hiroshima Bay"	34.333		132.367																										"0 - 0.05"							8									"River mouth region; Ignition loss (600 ℃, 2h)"	2017/10/6	2019/7/18
PRA000046	SAA002728	ST023				SC-A4	Sediment	"Sediment core"	2012	8	8					Asia	Japan	"Hiroshima Bay"	34.206		132.315																										"0 - 0.05"							7									"Near an aquaculture net; Ignition loss (600 ℃, 2h)"	2017/10/6	2019/7/18
PRA000046	SAA002729	ST023				SC-B4	Sediment	"Sediment core"	2012	8	8					Asia	Japan	"Hiroshima Bay"	34.301		132.365																										"0 - 0.05"							8									"At the center of the Hiroshima Bay and along a sea route; Ignition loss(600 ℃, 2h)"	2017/10/6	2019/7/18
PRA000046	SAA002730	ST023				SC-C4	Sediment	"Sediment core"	2012	8	8					Asia	Japan	"Hiroshima Bay"	34.275		132.418																										"0 - 0.05"							8									"River mouth region; Ignition loss (600 ℃, 2h)"	2017/10/6	2019/7/18
PRA000046	SAA002731	ST023				SC-D4	Sediment	"Sediment core"	2012	8	8					Asia	Japan	"Hiroshima Bay"	34.335		132.434																										"0 - 0.05"							9									"River mouth region; Ignition loss (600 ℃, 2h)"	2017/10/6	2019/7/18
PRA000046	SAA002732	ST023				SC-E4	Sediment	"Sediment core"	2012	8	8					Asia	Japan	"Hiroshima Bay"	34.333		132.367																										"0 - 0.05"							9									"River mouth region; Ignition loss (600 ℃, 2h)"	2017/10/6	2019/7/18
PRA000046	SAA002733	ST023				SC-A5	Sediment	"Sediment core"	2012	6	26					Asia	Japan	"Hiroshima Bay"	34.206		132.315																										"0 - 0.05"							8									"Near an aquaculture net; Ignition loss (600 ℃, 2h)"	2017/10/6	2019/7/18
PRA000046	SAA002734	ST023				SC-B5	Sediment	"Sediment core"	2012	6	26					Asia	Japan	"Hiroshima Bay"	34.301		132.365																										"0 - 0.05"							7									"At the center of the Hiroshima Bay and along a sea route; Ignition loss (600 ℃, 2h)"	2017/10/6	2019/7/18
PRA000046	SAA002735	ST023				SC-C5	Sediment	"Sediment core"	2012	6	26					Asia	Japan	"Hiroshima Bay"	34.275		132.418																										"0 - 0.05"							11									"River mouth region; Ignition loss (600 ℃, 2h)"	2017/10/6	2019/7/18
PRA000046	SAA002736	ST023				SC-D5	Sediment	"Sediment core"	2012	6	26					Asia	Japan	"Hiroshima Bay"	34.335		132.434																										"0 - 0.05"							10									"River mouth region; Ignition loss (600 ℃, 2h)"	2017/10/6	2019/7/18
PRA000046	SAA002737	ST023				SC-E5	Sediment	"Sediment core"	2012	6	26					Asia	Japan	"Hiroshima Bay"	34.333		132.367																										"0 - 0.05"							10									"River mouth region; Ignition loss (600 ℃, 2h)"	2017/10/6	2019/7/18
PRA000046	SAA002738	ST023				SC-A6	Sediment	"Sediment core"	2012	4	24					Asia	Japan	"Hiroshima Bay"	34.206		132.315																										"0 - 0.05"							7									"Near an aquaculture net; Ignition loss (600 ℃, 2h)"	2017/10/6	2019/7/18
PRA000046	SAA002739	ST023				SC-B6	Sediment	"Sediment core"	2012	4	24					Asia	Japan	"Hiroshima Bay"	34.301		132.365																										"0 - 0.05"							7									"At the center of the Hiroshima Bay and along a sea route; Ignition loss (600 ℃, 2h)"	2017/10/6	2019/7/18
PRA000046	SAA002740	ST023				SC-C6	Sediment	"Sediment core"	2012	4	24					Asia	Japan	"Hiroshima Bay"	34.275		132.418																										"0 - 0.05"							11									"River mouth region; Ignition loss (600 ℃, 2h)"	2017/10/6	2019/7/18
PRA000046	SAA002741	ST023				SC-D6	Sediment	"Sediment core"	2012	4	24					Asia	Japan	"Hiroshima Bay"	34.335		132.434																										"0 - 0.05"							10									"River mouth region; Ignition loss (600 ℃, 2h)"	2017/10/6	2019/7/18
PRA000046	SAA002742	ST023				SC-E6	Sediment	"Sediment core"	2012	4	24					Asia	Japan	"Hiroshima Bay"	34.333		132.367																										"0 - 0.05"							8									"River mouth region; Ignition loss (600 ℃, 2h)"	2017/10/6	2019/7/18
PRA000046	SAA002743	ST023				SC-A7	Sediment	"Sediment core"	2012	2	21					Asia	Japan	"Hiroshima Bay"	34.206		132.315																										"0 - 0.05"							8									"Near an aquaculture net; Ignition loss (600 ℃, 2h)"	2017/10/6	2019/7/18
PRA000046	SAA002744	ST023				SC-B7	Sediment	"Sediment core"	2012	2	21					Asia	Japan	"Hiroshima Bay"	34.301		132.365																										"0 - 0.05"							8									"At the center of the Hiroshima Bay and along a sea route; Ignition loss (600 ℃, 2h)"	2017/10/6	2019/7/18
PRA000046	SAA002745	ST023				SC-C7	Sediment	"Sediment core"	2012	2	21					Asia	Japan	"Hiroshima Bay"	34.275		132.418																										"0 - 0.05"							11									"River mouth region; Ignition loss (600 ℃, 2h)"	2017/10/6	2019/7/18
PRA000046	SAA002746	ST023				SC-D7	Sediment	"Sediment core"	2012	2	21					Asia	Japan	"Hiroshima Bay"	34.335		132.434																										"0 - 0.05"							10									"River mouth region; Ignition loss (600 ℃, 2h)"	2017/10/6	2019/7/18
PRA000046	SAA002747	ST023				SC-E7	Sediment	"Sediment core"	2012	2	21					Asia	Japan	"Hiroshima Bay"	34.333		132.367																										"0 - 0.05"							9									"River mouth region; Ignition loss (600 ℃, 2h)"	2017/10/6	2019/7/18
PRA000046	SAA002748	ST023				SC-A8	Sediment	"Sediment core"	2011	12	6					Asia	Japan	"Hiroshima Bay"	34.206		132.315																										"0 - 0.05"							7									"Near an aquaculture net; Ignition loss (600 ℃, 2h)"	2017/10/6	2019/7/18
PRA000046	SAA002749	ST023				SC-B8	Sediment	"Sediment core"	2011	12	6					Asia	Japan	"Hiroshima Bay"	34.301		132.365																										"0 - 0.05"							8									"At the center of the Hiroshima Bay and along a sea route; Ignition loss (600 ℃, 2h)"	2017/10/6	2019/7/18
PRA000046	SAA002750	ST023				SC-C8	Sediment	"Sediment core"	2011	12	6					Asia	Japan	"Hiroshima Bay"	34.275		132.418																										"0 - 0.05"							12									"River mouth region; Ignition loss (600 ℃, 2h)"	2017/10/6	2019/7/18
PRA000046	SAA002751	ST023				SC-D8	Sediment	"Sediment core"	2011	12	6					Asia	Japan	"Hiroshima Bay"	34.335		132.434																										"0 - 0.05"							9									"River mouth region; Ignition loss (600 ℃, 2h)"	2017/10/6	2019/7/18
PRA000046	SAA002752	ST023				SC-E8	Sediment	"Sediment core"	2011	12	6					Asia	Japan	"Hiroshima Bay"	34.333		132.367																										"0 - 0.05"							10									"River mouth region; Ignition loss (600 ℃, 2h)"	2017/10/6	2019/7/18
PRA000046	SAA002753	ST023				SC-A9	Sediment	"Sediment core"	2011	10	5					Asia	Japan	"Hiroshima Bay"	34.206		132.315																										"0 - 0.05"							7									"Near an aquaculture net; Ignition loss (600 ℃, 2h)"	2017/10/6	2019/7/18
PRA000046	SAA002754	ST023				SC-B9	Sediment	"Sediment core"	2011	10	5					Asia	Japan	"Hiroshima Bay"	34.301		132.365																										"0 - 0.05"							8									"At the center of the Hiroshima Bay and along a sea route; Ignition loss (600 ℃, 2h)"	2017/10/6	2019/7/18
PRA000046	SAA002755	ST023				SC-C9	Sediment	"Sediment core"	2011	10	5					Asia	Japan	"Hiroshima Bay"	34.275		132.418																										"0 - 0.05"							9									"River mouth region; Ignition loss (600 ℃, 2h)"	2017/10/6	2019/7/18
PRA000046	SAA002756	ST023				SC-D9	Sediment	"Sediment core"	2011	10	5					Asia	Japan	"Hiroshima Bay"	34.335		132.434																										"0 - 0.05"							9									"River mouth region; Ignition loss (600 ℃, 2h)"	2017/10/6	2019/7/18
PRA000046	SAA002757	ST023				SC-E9	Sediment	"Sediment core"	2011	10	5					Asia	Japan	"Hiroshima Bay"	34.333		132.367																										"0 - 0.05"							9									"River mouth region; Ignition loss (600 ℃, 2h)"	2017/10/6	2019/7/18
PRA000046	SAA002758	ST023				SC-A10	Sediment	"Sediment core"	2011	8	17					Asia	Japan	"Hiroshima Bay"	34.206		132.315																										"0 - 0.05"							8									"Near an aquaculture net; Ignition loss (600 ℃, 2h)"	2017/10/6	2019/7/18
PRA000046	SAA002759	ST023				SC-B10	Sediment	"Sediment core"	2011	8	17					Asia	Japan	"Hiroshima Bay"	34.301		132.365																										"0 - 0.05"							7									"At the center of the Hiroshima Bay and along a sea route; Ignition loss (600 ℃, 2h)"	2017/10/6	2019/7/18
PRA000046	SAA002760	ST023				SC-C10	Sediment	"Sediment core"	2011	8	17					Asia	Japan	"Hiroshima Bay"	34.275		132.418																										"0 - 0.05"							10									"River mouth region; Ignition loss (600 ℃, 2h)"	2017/10/6	2019/7/18
PRA000046	SAA002761	ST023				SC-D10	Sediment	"Sediment core"	2011	8	17					Asia	Japan	"Hiroshima Bay"	34.335		132.434																										"0 - 0.05"							10									"River mouth region; Ignition loss (600 ℃, 2h)"	2017/10/6	2019/7/18
PRA000046	SAA002762	ST023				SC-E10	Sediment	"Sediment core"	2011	8	17					Asia	Japan	"Hiroshima Bay"	34.333		132.367																										"0 - 0.05"							9									"River mouth region; Ignition loss (600 ℃, 2h)"	2017/10/6	2019/7/18
PRA000046	SAA002763	ST023				SC-A11	Sediment	"Sediment core"	2011	6	28					Asia	Japan	"Hiroshima Bay"	34.206		132.315																										"0 - 0.05"							7									"Near an aquaculture net; Ignition loss (600 ℃, 2h)"	2017/10/6	2019/7/18
PRA000046	SAA002764	ST023				SC-B11	Sediment	"Sediment core"	2011	6	28					Asia	Japan	"Hiroshima Bay"	34.301		132.365																										"0 - 0.05"							6									"At the center of the Hiroshima Bay and along a sea route; Ignition loss (600 ℃, 2h)"	2017/10/6	2019/7/18
PRA000046	SAA002765	ST023				SC-C11	Sediment	"Sediment core"	2011	6	28					Asia	Japan	"Hiroshima Bay"	34.275		132.418																										"0 - 0.05"							12									"River mouth region; Ignition loss (600 ℃, 2h)"	2017/10/6	2019/7/18
PRA000046	SAA002766	ST023				SC-D11	Sediment	"Sediment core"	2011	6	28					Asia	Japan	"Hiroshima Bay"	34.335		132.434																										"0 - 0.05"							8									"River mouth region; Ignition loss (600 ℃, 2h)"	2017/10/6	2019/7/18
PRA000046	SAA002767	ST023				SC-E11	Sediment	"Sediment core"	2011	6	28					Asia	Japan	"Hiroshima Bay"	34.333		132.367																										"0 - 0.05"							7									"River mouth region; Ignition loss (600 ℃, 2h)"	2017/10/6	2019/7/18
PRA000046	SAA002768	ST023				SC-A12	Sediment	"Sediment core"	2011	5	10					Asia	Japan	"Hiroshima Bay"	34.206		132.315																										"0 - 0.05"							7									"Near an aquaculture net; Ignition loss (600 ℃, 2h)"	2017/10/6	2019/7/18
PRA000046	SAA002769	ST023				SC-B12	Sediment	"Sediment core"	2011	5	10					Asia	Japan	"Hiroshima Bay"	34.301		132.365																										"0 - 0.05"							7									"At the center of the Hiroshima Bay and along a sea route; Ignition loss (600 ℃, 2h)"	2017/10/6	2019/7/18
PRA000046	SAA002770	ST023				SC-C12	Sediment	"Sediment core"	2011	5	10					Asia	Japan	"Hiroshima Bay"	34.275		132.418																										"0 - 0.05"							9									"River mouth region; Ignition loss (600 ℃, 2h)"	2017/10/6	2019/7/18
PRA000046	SAA002771	ST023				SC-D12	Sediment	"Sediment core"	2011	5	10					Asia	Japan	"Hiroshima Bay"	34.335		132.434																										"0 - 0.05"							9									"River mouth region; Ignition loss (600 ℃, 2h)"	2017/10/6	2019/7/18
PRA000046	SAA002772	ST023				SC-E12	Sediment	"Sediment core"	2011	5	10					Asia	Japan	"Hiroshima Bay"	34.333		132.367																										"0 - 0.05"							8									"River mouth region; Ignition loss (600 ℃, 2h)"	2017/10/6	2019/7/18
